Flight Track Log - Related Links

Times and Time Zones

All times are in EDT time to prevent confusion due to time zone crossing. See the SKW5631 flight status page for this flight to view local times or setup timezone preferences in your user account.

Time Position Orientation Groundspeed Altitude Reporting Facility
EDT Latitude Longitude Course Direction KTS MPH feet Rate Location/Type
Sun 10:00:32 PM 39.9500 -104.6833 14° North 212 244 7,500  Level Denver TRACON
Sun 10:01:32 PM 40.0000 -104.6667 14° North 237 273 10,100 2,388 Climbing Denver TRACON
Sun 10:02:10 PM 40.0472 -104.6594 North 245 282 11,400 2,400 Climbing Denver Center
Sun 10:03:12 PM 40.1236 -104.6750 351° North 259 298 14,100 2,274 Climbing Denver Center
Sun 10:04:14 PM 40.2017 -104.6956 349° North 291 335 16,100 1,790 Climbing Denver Center
Sun 10:05:16 PM 40.2903 -104.7192 349° North 303 349 17,800 1,016 Climbing Denver Center
Sun 10:06:18 PM 40.3906 -104.7458 349° North 369 425 18,200 732 Climbing Denver Center
Sun 10:07:19 PM 40.5069 -104.7761 349° North 405 466 19,300 1,122 Climbing Denver Center
Sun 10:08:21 PM 40.6061 -104.8303 337° Northwest 388 447 20,500 1,161 Climbing Denver Center
Sun 10:09:23 PM 40.6939 -104.9186 323° Northwest 398 458 21,700 1,161 Climbing Denver Center
Sun 10:10:25 PM 40.7819 -104.9994 325° Northwest 378 435 22,900 1,113 Climbing Denver Center
Sun 10:11:27 PM 40.8714 -105.0831 325° Northwest 388 447 24,000 976 Climbing Denver Center
Sun 10:12:28 PM 40.9617 -105.1700 324° Northwest 398 458 24,900 878 Climbing Denver Center
Sun 10:13:30 PM 41.0644 -105.2683 324° Northwest 394 453 25,800 774 Climbing Denver Center
Sun 10:14:32 PM 41.1525 -105.3553 323° Northwest 404 465 26,500 726 Climbing Denver Center
Sun 10:15:34 PM 41.2403 -105.4392 324° Northwest 405 466 27,300 829 Climbing Denver Center
Sun 10:16:35 PM 41.3414 -105.5381 324° Northwest 403 464 28,200 780 Climbing Denver Center
Sun 10:17:37 PM 41.4292 -105.6231 324° Northwest 406 467 28,900 774 Climbing Denver Center
Sun 10:18:39 PM 41.5294 -105.7228 323° Northwest 404 465 29,800 732 Climbing Denver Center
Sun 10:19:40 PM 41.6156 -105.8075 324° Northwest 401 461 30,400 634 Climbing Denver Center
Sun 10:20:42 PM 41.7197 -105.9100 324° Northwest 411 473 31,100 629 Climbing Denver Center
Sun 10:21:44 PM 41.8081 -105.9975 324° Northwest 412 474 31,700 435 Climbing Denver Center
Sun 10:22:46 PM 41.8933 -106.0819 324° Northwest 403 464 32,000 146 Climbing Denver Center
Sun 10:23:47 PM 41.9978 -106.1858 324° Northwest 415 478 32,000  Level Denver Center
Sun 10:24:49 PM 42.0875 -106.2764 323° Northwest 420 483 32,000  Level Denver Center
Sun 10:25:51 PM 42.1911 -106.3825 323° Northwest 420 483 32,000  Level Denver Center
Sun 10:26:52 PM 42.2817 -106.4736 323° Northwest 423 487 32,000  Level Denver Center
Sun 10:27:54 PM 42.3728 -106.5656 323° Northwest 425 489 32,000  Level Denver Center
Sun 10:28:56 PM 42.4786 -106.6736 323° Northwest 426 490 32,000  Level Denver Center
Sun 10:29:57 PM 42.5700 -106.7667 323° Northwest 427 491 32,000  Level Denver Center
Sun 10:30:59 PM 42.6750 -106.8756 323° Northwest 426 490 32,000  Level Denver Center
Sun 10:32:00 PM 42.7653 -106.9692 323° Northwest 426 490 32,000  Level Denver Center
Sun 10:33:02 PM 42.8769 -107.0692 327° Northwest 428 493 32,000  Level Denver Center
Sun 10:34:04 PM 42.9717 -107.1569 326° Northwest 429 494 32,000  Level Denver Center
Sun 10:35:05 PM 43.0692 -107.2461 326° Northwest 428 493 32,000  Level Denver Center
Sun 10:36:07 PM 43.1797 -107.3494 326° Northwest 431 496 32,000  Level Denver Center
Sun 10:36:41 PM 43.2267 -107.3947 325° Northwest 431 496 32,000  Level Salt Lake Center
Sun 10:37:42 PM 43.3369 -107.4975 326° Northwest 431 496 32,000  Level Salt Lake Center
Sun 10:38:43 PM 43.4328 -107.5867 326° Northwest 433 498 32,000  Level Salt Lake Center
Sun 10:39:45 PM 43.5289 -107.6767 326° Northwest 437 503 32,000  Level Salt Lake Center
Sun 10:40:46 PM 43.6411 -107.7817 326° Northwest 435 501 32,000 -246 Level Salt Lake Center
Sun 10:41:47 PM 43.7378 -107.8739 325° Northwest 439 505 31,500 -1,707 Descending Salt Lake Center
Sun 10:42:49 PM 43.8339 -107.9642 326° Northwest 436 502 28,500 -3,122 Descending Salt Lake Center
Sun 10:43:50 PM 43.9417 -108.0672 325° Northwest 422 486 25,100 -3,098 Descending Salt Lake Center
Sun 10:44:51 PM 44.0344 -108.1525 327° Northwest 417 480 22,200 -3,024 Descending Salt Lake Center
Sun 10:45:53 PM 44.1408 -108.2550 325° Northwest 415 478 18,900 -3,073 Descending Salt Lake Center
Sun 10:46:54 PM 44.2294 -108.3386 326° Northwest 410 472 15,900 -2,634 Descending Salt Lake Center
Sun 10:47:56 PM 44.3081 -108.4128 326° Northwest 384 442 13,500 -2,341 Descending Salt Lake Center
Sun 10:48:57 PM 44.3892 -108.4903 326° Northwest 336 387 11,100 -1,672 Descending Salt Lake Center
Sun 10:49:58 PM 44.4561 -108.5558 325° Northwest 318 366 10,100 -829 Descending Salt Lake Center
Sun 10:51:00 PM 44.5222 -108.6178 326° Northwest 307 353 9,400 -488 Descending Salt Lake Center
Sun 10:52:01 PM 44.5939 -108.6881 325° Northwest 293 337 9,100 -689 Descending Salt Lake Center
Sun 10:53:02 PM 44.6469 -108.7503 320° Northwest 277 319 8,000 -541 Descending Salt Lake Center
Sun 10:54:03 PM 44.6231 -108.8419 250° West 243 280 8,000 -293 Level Salt Lake Center
Sun 10:55:05 PM 44.5886 -108.9050 233° Southwest 225 259 7,400 -829 Descending Salt Lake Center
Sun 10:56:06 PM 44.5597 -108.9567 232° Southwest 199 229 6,300 -738 Descending Salt Lake Center
Sun 10:57:07 PM 44.5278 -109.0117 231° Southwest 189 217 5,900 -393 Descending Salt Lake Center
Sun 10:59:00 PM 44.5167 -109.0167 245° Southwest  Level FlightAware Approximate

Login

Don't have an account? Register now (free) for customized features, flight alerts, and more!